sensor_id;sensor_type;location;lat;lon;timestamp;P1;durP1;ratioP1;P2;durP2;ratioP2
70228;SDS011;57617;51.988;5.854;2023-07-13T00:00:16;7.72;;;2.83;;
70228;SDS011;57617;51.988;5.854;2023-07-13T00:02:42;8.10;;;3.15;;
70228;SDS011;57617;51.988;5.854;2023-07-13T00:05:08;8.80;;;2.80;;
70228;SDS011;57617;51.988;5.854;2023-07-13T00:07:34;8.15;;;3.00;;
70228;SDS011;57617;51.988;5.854;2023-07-13T00:10:03;7.60;;;2.40;;
70228;SDS011;57617;51.988;5.854;2023-07-13T00:12:33;13.75;;;2.80;;
70228;SDS011;57617;51.988;5.854;2023-07-13T00:15:05;11.30;;;2.40;;
70228;SDS011;57617;51.988;5.854;2023-07-13T00:17:39;11.95;;;2.60;;
70228;SDS011;57617;51.988;5.854;2023-07-13T00:20:05;6.40;;;2.30;;
70228;SDS011;57617;51.988;5.854;2023-07-13T00:22:31;8.93;;;2.40;;
70228;SDS011;57617;51.988;5.854;2023-07-13T00:24:57;10.38;;;2.50;;
70228;SDS011;57617;51.988;5.854;2023-07-13T00:27:22;6.18;;;2.30;;
70228;SDS011;57617;51.988;5.854;2023-07-13T00:29:51;9.85;;;2.60;;
70228;SDS011;57617;51.988;5.854;2023-07-13T00:32:16;6.53;;;2.22;;
70228;SDS011;57617;51.988;5.854;2023-07-13T00:34:41;6.50;;;2.42;;
70228;SDS011;57617;51.988;5.854;2023-07-13T00:37:07;6.82;;;2.13;;
70228;SDS011;57617;51.988;5.854;2023-07-13T00:39:33;7.15;;;2.40;;
70228;SDS011;57617;51.988;5.854;2023-07-13T00:42:00;9.20;;;2.33;;
70228;SDS011;57617;51.988;5.854;2023-07-13T00:44:26;10.48;;;2.90;;
70228;SDS011;57617;51.988;5.854;2023-07-13T00:46:52;8.88;;;3.03;;
70228;SDS011;57617;51.988;5.854;2023-07-13T00:49:20;7.60;;;2.10;;
70228;SDS011;57617;51.988;5.854;2023-07-13T00:51:55;8.68;;;2.40;;
70228;SDS011;57617;51.988;5.854;2023-07-13T00:54:23;15.65;;;2.25;;
70228;SDS011;57617;51.988;5.854;2023-07-13T00:56:52;11.07;;;2.65;;
70228;SDS011;57617;51.988;5.854;2023-07-13T00:59:19;6.30;;;2.20;;
70228;SDS011;57617;51.988;5.854;2023-07-13T01:01:46;8.48;;;2.20;;
70228;SDS011;57617;51.988;5.854;2023-07-13T01:04:12;8.65;;;2.17;;
70228;SDS011;57617;51.988;5.854;2023-07-13T01:06:39;7.93;;;2.03;;
70228;SDS011;57617;51.988;5.854;2023-07-13T01:09:06;9.35;;;2.10;;
70228;SDS011;57617;51.988;5.854;2023-07-13T01:11:33;6.10;;;1.98;;
70228;SDS011;57617;51.988;5.854;2023-07-13T01:13:59;7.75;;;2.40;;
70228;SDS011;57617;51.988;5.854;2023-07-13T01:16:27;9.40;;;2.30;;
70228;SDS011;57617;51.988;5.854;2023-07-13T01:18:56;8.45;;;2.30;;
70228;SDS011;57617;51.988;5.854;2023-07-13T01:21:23;8.88;;;2.50;;
70228;SDS011;57617;51.988;5.854;2023-07-13T01:23:49;6.93;;;2.03;;
70228;SDS011;57617;51.988;5.854;2023-07-13T01:26:15;8.27;;;2.35;;
70228;SDS011;57617;51.988;5.854;2023-07-13T01:28:40;10.82;;;2.30;;
70228;SDS011;57617;51.988;5.854;2023-07-13T01:31:06;6.32;;;2.25;;
70228;SDS011;57617;51.988;5.854;2023-07-13T01:33:33;8.52;;;2.20;;
70228;SDS011;57617;51.988;5.854;2023-07-13T01:35:59;5.70;;;2.25;;
70228;SDS011;57617;51.988;5.854;2023-07-13T01:38:25;9.23;;;2.20;;
70228;SDS011;57617;51.988;5.854;2023-07-13T01:40:51;8.30;;;2.10;;
70228;SDS011;57617;51.988;5.854;2023-07-13T01:43:17;8.85;;;2.00;;
70228;SDS011;57617;51.988;5.854;2023-07-13T01:45:43;11.50;;;2.42;;
70228;SDS011;57617;51.988;5.854;2023-07-13T01:48:09;8.27;;;2.10;;
70228;SDS011;57617;51.988;5.854;2023-07-13T01:50:36;11.45;;;3.03;;
70228;SDS011;57617;51.988;5.854;2023-07-13T01:53:02;11.77;;;2.75;;
70228;SDS011;57617;51.988;5.854;2023-07-13T01:55:28;8.70;;;2.30;;
70228;SDS011;57617;51.988;5.854;2023-07-13T01:57:54;7.32;;;2.30;;
70228;SDS011;57617;51.988;5.854;2023-07-13T02:00:19;7.40;;;2.30;;
70228;SDS011;57617;51.988;5.854;2023-07-13T02:02:45;7.75;;;2.50;;
70228;SDS011;57617;51.988;5.854;2023-07-13T02:05:10;5.72;;;2.40;;
70228;SDS011;57617;51.988;5.854;2023-07-13T02:07:37;11.63;;;2.35;;
70228;SDS011;57617;51.988;5.854;2023-07-13T02:10:02;6.47;;;2.40;;
70228;SDS011;57617;51.988;5.854;2023-07-13T02:12:28;9.10;;;2.60;;
70228;SDS011;57617;51.988;5.854;2023-07-13T02:14:53;9.82;;;2.58;;
70228;SDS011;57617;51.988;5.854;2023-07-13T02:17:19;6.10;;;2.55;;
70228;SDS011;57617;51.988;5.854;2023-07-13T02:19:44;8.20;;;2.75;;
70228;SDS011;57617;51.988;5.854;2023-07-13T02:22:10;7.93;;;2.58;;
70228;SDS011;57617;51.988;5.854;2023-07-13T02:24:35;8.13;;;3.42;;
70228;SDS011;57617;51.988;5.854;2023-07-13T02:27:00;11.45;;;2.85;;
70228;SDS011;57617;51.988;5.854;2023-07-13T02:29:26;6.75;;;2.78;;
70228;SDS011;57617;51.988;5.854;2023-07-13T02:31:51;7.00;;;2.95;;
70228;SDS011;57617;51.988;5.854;2023-07-13T02:34:16;10.80;;;3.22;;
70228;SDS011;57617;51.988;5.854;2023-07-13T02:36:42;5.88;;;3.05;;
70228;SDS011;57617;51.988;5.854;2023-07-13T02:39:07;12.10;;;3.10;;
70228;SDS011;57617;51.988;5.854;2023-07-13T02:41:34;16.17;;;3.00;;
70228;SDS011;57617;51.988;5.854;2023-07-13T02:43:59;10.32;;;3.20;;
70228;SDS011;57617;51.988;5.854;2023-07-13T02:46:32;10.27;;;3.03;;
70228;SDS011;57617;51.988;5.854;2023-07-13T02:48:58;8.30;;;3.13;;
70228;SDS011;57617;51.988;5.854;2023-07-13T02:51:24;9.25;;;3.45;;
70228;SDS011;57617;51.988;5.854;2023-07-13T02:53:49;13.35;;;3.70;;
70228;SDS011;57617;51.988;5.854;2023-07-13T02:56:15;10.30;;;3.30;;
70228;SDS011;57617;51.988;5.854;2023-07-13T02:58:40;10.07;;;3.63;;
70228;SDS011;57617;51.988;5.854;2023-07-13T03:01:06;7.35;;;3.03;;
70228;SDS011;57617;51.988;5.854;2023-07-13T03:03:33;10.50;;;3.50;;
70228;SDS011;57617;51.988;5.854;2023-07-13T03:06:00;13.40;;;3.85;;
70228;SDS011;57617;51.988;5.854;2023-07-13T03:08:27;7.97;;;3.10;;
70228;SDS011;57617;51.988;5.854;2023-07-13T03:10:59;7.80;;;3.72;;
70228;SDS011;57617;51.988;5.854;2023-07-13T03:13:33;8.07;;;3.03;;
70228;SDS011;57617;51.988;5.854;2023-07-13T03:15:58;8.98;;;3.53;;
70228;SDS011;57617;51.988;5.854;2023-07-13T03:18:25;9.73;;;3.40;;
70228;SDS011;57617;51.988;5.854;2023-07-13T03:20:53;15.77;;;3.75;;
70228;SDS011;57617;51.988;5.854;2023-07-13T03:23:18;12.30;;;3.60;;
70228;SDS011;57617;51.988;5.854;2023-07-13T03:25:45;9.20;;;3.78;;
70228;SDS011;57617;51.988;5.854;2023-07-13T03:28:11;12.48;;;3.85;;
70228;SDS011;57617;51.988;5.854;2023-07-13T03:30:37;7.88;;;3.45;;
70228;SDS011;57617;51.988;5.854;2023-07-13T03:33:03;13.23;;;3.50;;
70228;SDS011;57617;51.988;5.854;2023-07-13T03:35:28;9.52;;;3.53;;
70228;SDS011;57617;51.988;5.854;2023-07-13T03:37:54;13.50;;;3.70;;
70228;SDS011;57617;51.988;5.854;2023-07-13T03:40:19;9.57;;;3.80;;
70228;SDS011;57617;51.988;5.854;2023-07-13T03:42:45;10.38;;;3.30;;
70228;SDS011;57617;51.988;5.854;2023-07-13T03:45:10;6.88;;;3.55;;
70228;SDS011;57617;51.988;5.854;2023-07-13T03:47:35;11.70;;;3.60;;
70228;SDS011;57617;51.988;5.854;2023-07-13T03:50:01;14.90;;;4.53;;
70228;SDS011;57617;51.988;5.854;2023-07-13T03:52:26;9.68;;;3.80;;
70228;SDS011;57617;51.988;5.854;2023-07-13T03:54:52;8.52;;;3.92;;
70228;SDS011;57617;51.988;5.854;2023-07-13T03:57:18;11.18;;;3.88;;
70228;SDS011;57617;51.988;5.854;2023-07-13T03:59:43;15.02;;;4.68;;
70228;SDS011;57617;51.988;5.854;2023-07-13T04:02:09;15.20;;;4.20;;
70228;SDS011;57617;51.988;5.854;2023-07-13T04:04:35;10.82;;;4.30;;
70228;SDS011;57617;51.988;5.854;2023-07-13T04:07:00;10.13;;;3.63;;
70228;SDS011;57617;51.988;5.854;2023-07-13T04:09:25;11.00;;;4.00;;
70228;SDS011;57617;51.988;5.854;2023-07-13T04:11:51;8.65;;;4.07;;
70228;SDS011;57617;51.988;5.854;2023-07-13T04:14:16;12.68;;;4.05;;
70228;SDS011;57617;51.988;5.854;2023-07-13T04:16:42;12.13;;;4.25;;
70228;SDS011;57617;51.988;5.854;2023-07-13T04:19:08;12.57;;;4.45;;
70228;SDS011;57617;51.988;5.854;2023-07-13T04:21:35;15.32;;;4.50;;
70228;SDS011;57617;51.988;5.854;2023-07-13T04:24:01;10.73;;;4.20;;
70228;SDS011;57617;51.988;5.854;2023-07-13T04:26:28;14.07;;;4.22;;
70228;SDS011;57617;51.988;5.854;2023-07-13T04:28:54;10.18;;;4.05;;
70228;SDS011;57617;51.988;5.854;2023-07-13T04:31:20;11.18;;;3.92;;
70228;SDS011;57617;51.988;5.854;2023-07-13T04:33:46;10.93;;;3.70;;
70228;SDS011;57617;51.988;5.854;2023-07-13T04:36:11;12.25;;;4.25;;
70228;SDS011;57617;51.988;5.854;2023-07-13T04:38:37;15.27;;;4.90;;
70228;SDS011;57617;51.988;5.854;2023-07-13T04:41:04;12.02;;;4.22;;
70228;SDS011;57617;51.988;5.854;2023-07-13T04:43:31;13.80;;;4.97;;
70228;SDS011;57617;51.988;5.854;2023-07-13T04:45:57;16.23;;;4.90;;
70228;SDS011;57617;51.988;5.854;2023-07-13T04:48:27;21.50;;;4.75;;
70228;SDS011;57617;51.988;5.854;2023-07-13T04:50:56;16.27;;;4.65;;
70228;SDS011;57617;51.988;5.854;2023-07-13T04:53:22;15.15;;;4.90;;
70228;SDS011;57617;51.988;5.854;2023-07-13T04:55:48;16.80;;;5.30;;
70228;SDS011;57617;51.988;5.854;2023-07-13T04:58:13;11.93;;;4.30;;
70228;SDS011;57617;51.988;5.854;2023-07-13T05:00:39;21.40;;;5.65;;
70228;SDS011;57617;51.988;5.854;2023-07-13T05:03:04;19.50;;;5.07;;
70228;SDS011;57617;51.988;5.854;2023-07-13T05:05:29;19.33;;;5.40;;
70228;SDS011;57617;51.988;5.854;2023-07-13T05:07:55;15.55;;;4.63;;
70228;SDS011;57617;51.988;5.854;2023-07-13T05:10:20;17.55;;;5.47;;
70228;SDS011;57617;51.988;5.854;2023-07-13T05:12:46;12.70;;;5.07;;
70228;SDS011;57617;51.988;5.854;2023-07-13T05:15:11;17.42;;;5.53;;
70228;SDS011;57617;51.988;5.854;2023-07-13T05:17:37;17.27;;;4.90;;
70228;SDS011;57617;51.988;5.854;2023-07-13T05:20:06;15.57;;;5.25;;
70228;SDS011;57617;51.988;5.854;2023-07-13T05:22:33;16.77;;;5.30;;
70228;SDS011;57617;51.988;5.854;2023-07-13T05:25:00;18.70;;;5.75;;
70228;SDS011;57617;51.988;5.854;2023-07-13T05:27:26;17.18;;;6.02;;
70228;SDS011;57617;51.988;5.854;2023-07-13T05:29:51;20.27;;;5.57;;
70228;SDS011;57617;51.988;5.854;2023-07-13T05:32:17;14.52;;;5.53;;
70228;SDS011;57617;51.988;5.854;2023-07-13T05:34:43;17.80;;;5.72;;
70228;SDS011;57617;51.988;5.854;2023-07-13T05:37:09;18.33;;;5.75;;
70228;SDS011;57617;51.988;5.854;2023-07-13T05:39:34;15.23;;;5.55;;
70228;SDS011;57617;51.988;5.854;2023-07-13T05:42:01;21.40;;;5.93;;
70228;SDS011;57617;51.988;5.854;2023-07-13T05:44:27;17.92;;;6.22;;
70228;SDS011;57617;51.988;5.854;2023-07-13T05:46:52;17.30;;;6.22;;
70228;SDS011;57617;51.988;5.854;2023-07-13T05:49:18;21.25;;;6.70;;
70228;SDS011;57617;51.988;5.854;2023-07-13T05:51:43;21.50;;;7.10;;
70228;SDS011;57617;51.988;5.854;2023-07-13T05:54:09;17.10;;;6.88;;
70228;SDS011;57617;51.988;5.854;2023-07-13T05:56:34;18.80;;;6.55;;
70228;SDS011;57617;51.988;5.854;2023-07-13T05:59:00;27.58;;;7.38;;
70228;SDS011;57617;51.988;5.854;2023-07-13T06:01:25;22.42;;;7.10;;
70228;SDS011;57617;51.988;5.854;2023-07-13T06:03:51;22.60;;;8.52;;
70228;SDS011;57617;51.988;5.854;2023-07-13T06:06:16;21.60;;;8.80;;
70228;SDS011;57617;51.988;5.854;2023-07-13T06:08:42;28.25;;;9.07;;
70228;SDS011;57617;51.988;5.854;2023-07-13T06:13:42;34.10;;;9.85;;
70228;SDS011;57617;51.988;5.854;2023-07-13T06:16:08;32.70;;;10.30;;
70228;SDS011;57617;51.988;5.854;2023-07-13T06:18:34;27.10;;;10.98;;
70228;SDS011;57617;51.988;5.854;2023-07-13T06:21:05;25.88;;;11.27;;
70228;SDS011;57617;51.988;5.854;2023-07-13T06:23:38;26.67;;;11.50;;
70228;SDS011;57617;51.988;5.854;2023-07-13T06:26:04;27.60;;;11.18;;
70228;SDS011;57617;51.988;5.854;2023-07-13T06:28:30;27.75;;;11.35;;
70228;SDS011;57617;51.988;5.854;2023-07-13T06:30:57;33.53;;;13.30;;
70228;SDS011;57617;51.988;5.854;2023-07-13T06:33:23;31.63;;;12.65;;
70228;SDS011;57617;51.988;5.854;2023-07-13T06:35:48;31.95;;;13.02;;
70228;SDS011;57617;51.988;5.854;2023-07-13T06:38:14;33.40;;;12.98;;
70228;SDS011;57617;51.988;5.854;2023-07-13T06:40:39;29.67;;;12.82;;
70228;SDS011;57617;51.988;5.854;2023-07-13T06:43:04;34.47;;;14.40;;
70228;SDS011;57617;51.988;5.854;2023-07-13T06:45:30;38.03;;;14.27;;
70228;SDS011;57617;51.988;5.854;2023-07-13T06:47:57;28.70;;;12.48;;
70228;SDS011;57617;51.988;5.854;2023-07-13T06:50:23;39.13;;;13.52;;
70228;SDS011;57617;51.988;5.854;2023-07-13T06:52:48;37.85;;;14.23;;
70228;SDS011;57617;51.988;5.854;2023-07-13T06:55:13;32.83;;;13.43;;
70228;SDS011;57617;51.988;5.854;2023-07-13T06:57:39;28.23;;;12.90;;
70228;SDS011;57617;51.988;5.854;2023-07-13T07:00:04;33.67;;;14.02;;
70228;SDS011;57617;51.988;5.854;2023-07-13T07:02:31;38.38;;;14.65;;
70228;SDS011;57617;51.988;5.854;2023-07-13T07:04:57;33.00;;;14.80;;
70228;SDS011;57617;51.988;5.854;2023-07-13T07:07:23;35.13;;;14.52;;
70228;SDS011;57617;51.988;5.854;2023-07-13T07:09:50;34.83;;;14.55;;
70228;SDS011;57617;51.988;5.854;2023-07-13T07:12:15;32.78;;;14.48;;
70228;SDS011;57617;51.988;5.854;2023-07-13T07:14:40;30.90;;;13.50;;
70228;SDS011;57617;51.988;5.854;2023-07-13T07:17:06;35.10;;;14.43;;
70228;SDS011;57617;51.988;5.854;2023-07-13T07:19:31;27.08;;;13.07;;
70228;SDS011;57617;51.988;5.854;2023-07-13T07:21:57;32.80;;;14.55;;
70228;SDS011;57617;51.988;5.854;2023-07-13T07:24:22;28.13;;;12.98;;
70228;SDS011;57617;51.988;5.854;2023-07-13T07:26:47;23.38;;;13.68;;
70228;SDS011;57617;51.988;5.854;2023-07-13T07:29:13;32.65;;;14.02;;
70228;SDS011;57617;51.988;5.854;2023-07-13T07:31:38;30.38;;;14.20;;
70228;SDS011;57617;51.988;5.854;2023-07-13T07:34:03;29.75;;;14.15;;
70228;SDS011;57617;51.988;5.854;2023-07-13T07:36:29;29.60;;;13.40;;
70228;SDS011;57617;51.988;5.854;2023-07-13T07:38:54;29.17;;;13.57;;
70228;SDS011;57617;51.988;5.854;2023-07-13T07:41:19;30.98;;;14.27;;
70228;SDS011;57617;51.988;5.854;2023-07-13T07:43:45;34.47;;;14.48;;
70228;SDS011;57617;51.988;5.854;2023-07-13T07:46:10;38.15;;;14.50;;
70228;SDS011;57617;51.988;5.854;2023-07-13T07:48:36;31.83;;;14.35;;
70228;SDS011;57617;51.988;5.854;2023-07-13T07:51:01;28.35;;;14.48;;
70228;SDS011;57617;51.988;5.854;2023-07-13T07:53:27;30.27;;;13.73;;
70228;SDS011;57617;51.988;5.854;2023-07-13T07:55:52;27.73;;;13.43;;
70228;SDS011;57617;51.988;5.854;2023-07-13T07:58:17;27.83;;;14.07;;
70228;SDS011;57617;51.988;5.854;2023-07-13T08:00:43;35.00;;;13.95;;
70228;SDS011;57617;51.988;5.854;2023-07-13T08:03:08;32.33;;;14.20;;
70228;SDS011;57617;51.988;5.854;2023-07-13T08:05:35;36.20;;;14.80;;
70228;SDS011;57617;51.988;5.854;2023-07-13T08:08:01;34.85;;;13.82;;
70228;SDS011;57617;51.988;5.854;2023-07-13T08:10:27;29.63;;;14.15;;
70228;SDS011;57617;51.988;5.854;2023-07-13T08:12:52;29.52;;;12.88;;
70228;SDS011;57617;51.988;5.854;2023-07-13T08:15:18;30.83;;;13.90;;
70228;SDS011;57617;51.988;5.854;2023-07-13T08:17:45;35.65;;;14.00;;
70228;SDS011;57617;51.988;5.854;2023-07-13T08:20:12;30.52;;;13.30;;
70228;SDS011;57617;51.988;5.854;2023-07-13T08:22:38;32.72;;;13.43;;
70228;SDS011;57617;51.988;5.854;2023-07-13T08:25:03;32.75;;;13.73;;
70228;SDS011;57617;51.988;5.854;2023-07-13T08:27:29;32.42;;;13.95;;
70228;SDS011;57617;51.988;5.854;2023-07-13T08:29:54;27.85;;;13.43;;
70228;SDS011;57617;51.988;5.854;2023-07-13T08:32:20;30.45;;;13.50;;
70228;SDS011;57617;51.988;5.854;2023-07-13T08:34:47;26.85;;;13.02;;
70228;SDS011;57617;51.988;5.854;2023-07-13T08:37:13;28.75;;;13.57;;
70228;SDS011;57617;51.988;5.854;2023-07-13T08:39:38;28.38;;;12.82;;
70228;SDS011;57617;51.988;5.854;2023-07-13T08:42:05;30.35;;;13.50;;
70228;SDS011;57617;51.988;5.854;2023-07-13T08:44:42;26.52;;;12.93;;
70228;SDS011;57617;51.988;5.854;2023-07-13T08:47:15;29.90;;;13.38;;
70228;SDS011;57617;51.988;5.854;2023-07-13T08:49:41;24.88;;;13.35;;
70228;SDS011;57617;51.988;5.854;2023-07-13T08:52:17;31.83;;;13.25;;
70228;SDS011;57617;51.988;5.854;2023-07-13T08:54:56;23.52;;;12.00;;
70228;SDS011;57617;51.988;5.854;2023-07-13T08:57:32;24.67;;;12.48;;
70228;SDS011;57617;51.988;5.854;2023-07-13T08:59:59;25.38;;;11.73;;
70228;SDS011;57617;51.988;5.854;2023-07-13T09:05:15;23.60;;;11.65;;
70228;SDS011;57617;51.988;5.854;2023-07-13T09:10:51;15.35;;;8.95;;
70228;SDS011;57617;51.988;5.854;2023-07-13T09:13:38;18.02;;;8.40;;
70228;SDS011;57617;51.988;5.854;2023-07-13T09:16:12;20.65;;;8.50;;
70228;SDS011;57617;51.988;5.854;2023-07-13T09:18:42;19.38;;;9.25;;
70228;SDS011;57617;51.988;5.854;2023-07-13T09:21:20;19.63;;;8.93;;
70228;SDS011;57617;51.988;5.854;2023-07-13T09:23:49;13.63;;;7.97;;
70228;SDS011;57617;51.988;5.854;2023-07-13T09:26:19;13.73;;;7.88;;
70228;SDS011;57617;51.988;5.854;2023-07-13T09:28:51;17.00;;;7.47;;
70228;SDS011;57617;51.988;5.854;2023-07-13T09:31:35;21.02;;;8.88;;
70228;SDS011;57617;51.988;5.854;2023-07-13T09:34:10;20.90;;;10.52;;
70228;SDS011;57617;51.988;5.854;2023-07-13T09:36:36;16.45;;;8.48;;
70228;SDS011;57617;51.988;5.854;2023-07-13T09:39:03;13.52;;;6.75;;
70228;SDS011;57617;51.988;5.854;2023-07-13T09:41:33;8.85;;;5.25;;
70228;SDS011;57617;51.988;5.854;2023-07-13T09:44:35;10.57;;;5.72;;
70228;SDS011;57617;51.988;5.854;2023-07-13T09:47:16;10.02;;;6.10;;
70228;SDS011;57617;51.988;5.854;2023-07-13T09:49:49;19.30;;;7.50;;
70228;SDS011;57617;51.988;5.854;2023-07-13T09:52:20;16.40;;;6.97;;
70228;SDS011;57617;51.988;5.854;2023-07-13T09:54:49;13.43;;;6.82;;
70228;SDS011;57617;51.988;5.854;2023-07-13T09:57:16;14.07;;;7.03;;
70228;SDS011;57617;51.988;5.854;2023-07-13T09:59:45;15.77;;;7.10;;
70228;SDS011;57617;51.988;5.854;2023-07-13T10:07:29;12.18;;;7.28;;
70228;SDS011;57617;51.988;5.854;2023-07-13T10:09:56;12.65;;;7.30;;
70228;SDS011;57617;51.988;5.854;2023-07-13T10:12:23;12.52;;;7.22;;
70228;SDS011;57617;51.988;5.854;2023-07-13T10:14:50;13.15;;;7.35;;
70228;SDS011;57617;51.988;5.854;2023-07-13T10:17:19;13.85;;;6.75;;
70228;SDS011;57617;51.988;5.854;2023-07-13T10:20:02;16.70;;;7.53;;
70228;SDS011;57617;51.988;5.854;2023-07-13T10:22:36;13.75;;;6.65;;
70228;SDS011;57617;51.988;5.854;2023-07-13T10:25:20;12.50;;;6.18;;
70228;SDS011;57617;51.988;5.854;2023-07-13T10:27:50;15.10;;;6.13;;
70228;SDS011;57617;51.988;5.854;2023-07-13T10:30:27;12.65;;;6.70;;
70228;SDS011;57617;51.988;5.854;2023-07-13T10:33:00;11.32;;;5.90;;
70228;SDS011;57617;51.988;5.854;2023-07-13T10:35:28;12.73;;;6.57;;
70228;SDS011;57617;51.988;5.854;2023-07-13T10:38:01;13.73;;;5.63;;
70228;SDS011;57617;51.988;5.854;2023-07-13T10:40:41;11.90;;;5.13;;
70228;SDS011;57617;51.988;5.854;2023-07-13T10:43:14;15.40;;;5.88;;
70228;SDS011;57617;51.988;5.854;2023-07-13T10:45:46;14.77;;;6.35;;
70228;SDS011;57617;51.988;5.854;2023-07-13T10:48:15;13.82;;;6.22;;
70228;SDS011;57617;51.988;5.854;2023-07-13T10:50:42;11.15;;;6.88;;
70228;SDS011;57617;51.988;5.854;2023-07-13T10:53:17;13.18;;;7.43;;
70228;SDS011;57617;51.988;5.854;2023-07-13T10:58:20;15.80;;;6.28;;
70228;SDS011;57617;51.988;5.854;2023-07-13T11:01:00;10.07;;;5.00;;
70228;SDS011;57617;51.988;5.854;2023-07-13T11:03:33;11.27;;;5.72;;
70228;SDS011;57617;51.988;5.854;2023-07-13T11:06:11;9.23;;;5.28;;
70228;SDS011;57617;51.988;5.854;2023-07-13T11:11:45;14.32;;;5.60;;
70228;SDS011;57617;51.988;5.854;2023-07-13T11:14:26;12.35;;;5.65;;
70228;SDS011;57617;51.988;5.854;2023-07-13T11:16:55;11.40;;;4.47;;
70228;SDS011;57617;51.988;5.854;2023-07-13T11:22:03;7.60;;;3.42;;
70228;SDS011;57617;51.988;5.854;2023-07-13T11:24:29;7.72;;;4.10;;
70228;SDS011;57617;51.988;5.854;2023-07-13T11:27:25;7.50;;;3.92;;
70228;SDS011;57617;51.988;5.854;2023-07-13T11:32:50;6.65;;;3.28;;
70228;SDS011;57617;51.988;5.854;2023-07-13T11:35:26;5.50;;;2.92;;
70228;SDS011;57617;51.988;5.854;2023-07-13T11:37:52;5.80;;;2.50;;
70228;SDS011;57617;51.988;5.854;2023-07-13T11:40:18;5.50;;;2.83;;
70228;SDS011;57617;51.988;5.854;2023-07-13T11:42:47;4.85;;;2.63;;
70228;SDS011;57617;51.988;5.854;2023-07-13T11:45:20;6.35;;;2.55;;
70228;SDS011;57617;51.988;5.854;2023-07-13T11:47:50;4.57;;;2.40;;
70228;SDS011;57617;51.988;5.854;2023-07-13T11:50:23;7.25;;;2.65;;
70228;SDS011;57617;51.988;5.854;2023-07-13T11:52:49;4.72;;;2.53;;
70228;SDS011;57617;51.988;5.854;2023-07-13T11:55:19;5.60;;;2.47;;
70228;SDS011;57617;51.988;5.854;2023-07-13T11:57:47;10.73;;;2.70;;
70228;SDS011;57617;51.988;5.854;2023-07-13T12:00:17;6.65;;;2.92;;
70228;SDS011;57617;51.988;5.854;2023-07-13T12:02:50;5.68;;;3.00;;
70228;SDS011;57617;51.988;5.854;2023-07-13T12:05:19;7.10;;;3.30;;
70228;SDS011;57617;51.988;5.854;2023-07-13T12:07:48;7.00;;;3.60;;
70228;SDS011;57617;51.988;5.854;2023-07-13T12:10:19;11.40;;;4.03;;
70228;SDS011;57617;51.988;5.854;2023-07-13T12:12:48;9.00;;;3.50;;
70228;SDS011;57617;51.988;5.854;2023-07-13T12:15:16;7.63;;;3.40;;
70228;SDS011;57617;51.988;5.854;2023-07-13T12:17:42;5.72;;;3.13;;
70228;SDS011;57617;51.988;5.854;2023-07-13T12:20:17;6.93;;;3.22;;
70228;SDS011;57617;51.988;5.854;2023-07-13T12:22:48;6.18;;;3.15;;
70228;SDS011;57617;51.988;5.854;2023-07-13T12:25:14;6.15;;;3.38;;
70228;SDS011;57617;51.988;5.854;2023-07-13T12:27:42;8.27;;;2.70;;
70228;SDS011;57617;51.988;5.854;2023-07-13T12:30:28;6.82;;;2.75;;
70228;SDS011;57617;51.988;5.854;2023-07-13T12:33:00;5.63;;;2.47;;
70228;SDS011;57617;51.988;5.854;2023-07-13T12:35:30;5.75;;;2.53;;
70228;SDS011;57617;51.988;5.854;2023-07-13T12:37:58;6.03;;;2.70;;
70228;SDS011;57617;51.988;5.854;2023-07-13T12:40:27;4.47;;;2.60;;
70228;SDS011;57617;51.988;5.854;2023-07-13T12:42:57;6.03;;;2.72;;
70228;SDS011;57617;51.988;5.854;2023-07-13T12:45:25;7.00;;;3.17;;
70228;SDS011;57617;51.988;5.854;2023-07-13T12:47:56;6.10;;;3.10;;
70228;SDS011;57617;51.988;5.854;2023-07-13T12:50:41;7.57;;;3.10;;
70228;SDS011;57617;51.988;5.854;2023-07-13T12:53:14;7.43;;;3.08;;
70228;SDS011;57617;51.988;5.854;2023-07-13T12:55:46;5.95;;;2.83;;
70228;SDS011;57617;51.988;5.854;2023-07-13T12:58:27;4.80;;;2.80;;
70228;SDS011;57617;51.988;5.854;2023-07-13T13:00:56;7.50;;;2.97;;
70228;SDS011;57617;51.988;5.854;2023-07-13T13:03:33;5.95;;;2.92;;
70228;SDS011;57617;51.988;5.854;2023-07-13T13:06:05;8.73;;;3.13;;
70228;SDS011;57617;51.988;5.854;2023-07-13T13:08:32;5.90;;;3.00;;
70228;SDS011;57617;51.988;5.854;2023-07-13T13:11:00;7.57;;;3.38;;
70228;SDS011;57617;51.988;5.854;2023-07-13T13:13:26;5.75;;;3.00;;
70228;SDS011;57617;51.988;5.854;2023-07-13T13:15:51;7.57;;;3.05;;
70228;SDS011;57617;51.988;5.854;2023-07-13T13:18:21;5.22;;;2.97;;
70228;SDS011;57617;51.988;5.854;2023-07-13T13:20:49;6.63;;;2.67;;
70228;SDS011;57617;51.988;5.854;2023-07-13T13:23:16;3.83;;;2.38;;
70228;SDS011;57617;51.988;5.854;2023-07-13T13:25:45;4.50;;;2.40;;
70228;SDS011;57617;51.988;5.854;2023-07-13T13:28:16;7.68;;;2.80;;
70228;SDS011;57617;51.988;5.854;2023-07-13T13:30:43;7.18;;;2.90;;
70228;SDS011;57617;51.988;5.854;2023-07-13T13:33:13;4.35;;;2.75;;
70228;SDS011;57617;51.988;5.854;2023-07-13T13:35:40;8.70;;;3.15;;
70228;SDS011;57617;51.988;5.854;2023-07-13T13:38:20;5.97;;;2.90;;
70228;SDS011;57617;51.988;5.854;2023-07-13T13:40:50;4.47;;;2.55;;
70228;SDS011;57617;51.988;5.854;2023-07-13T13:45:45;4.53;;;2.10;;
70228;SDS011;57617;51.988;5.854;2023-07-13T13:48:18;5.85;;;2.30;;
70228;SDS011;57617;51.988;5.854;2023-07-13T13:50:45;4.80;;;2.00;;
70228;SDS011;57617;51.988;5.854;2023-07-13T13:53:12;5.78;;;2.55;;
70228;SDS011;57617;51.988;5.854;2023-07-13T13:55:38;6.30;;;2.33;;
70228;SDS011;57617;51.988;5.854;2023-07-13T13:58:06;5.03;;;2.33;;
70228;SDS011;57617;51.988;5.854;2023-07-13T14:00:33;4.55;;;2.30;;
70228;SDS011;57617;51.988;5.854;2023-07-13T14:02:58;4.45;;;2.42;;
70228;SDS011;57617;51.988;5.854;2023-07-13T14:05:25;4.90;;;2.47;;
70228;SDS011;57617;51.988;5.854;2023-07-13T14:07:55;6.15;;;2.58;;
70228;SDS011;57617;51.988;5.854;2023-07-13T14:10:22;5.00;;;2.50;;
70228;SDS011;57617;51.988;5.854;2023-07-13T14:12:51;3.08;;;2.25;;
70228;SDS011;57617;51.988;5.854;2023-07-13T14:15:26;6.35;;;2.40;;
70228;SDS011;57617;51.988;5.854;2023-07-13T14:17:53;3.92;;;2.30;;
70228;SDS011;57617;51.988;5.854;2023-07-13T14:20:20;5.13;;;2.55;;
70228;SDS011;57617;51.988;5.854;2023-07-13T14:22:49;7.20;;;2.58;;
70228;SDS011;57617;51.988;5.854;2023-07-13T14:25:16;6.85;;;2.70;;
70228;SDS011;57617;51.988;5.854;2023-07-13T14:27:42;5.88;;;2.92;;
70228;SDS011;57617;51.988;5.854;2023-07-13T14:30:13;5.53;;;3.47;;
70228;SDS011;57617;51.988;5.854;2023-07-13T14:32:43;4.78;;;2.65;;
70228;SDS011;57617;51.988;5.854;2023-07-13T14:35:12;7.20;;;2.58;;
70228;SDS011;57617;51.988;5.854;2023-07-13T14:37:41;5.32;;;2.20;;
70228;SDS011;57617;51.988;5.854;2023-07-13T14:40:14;4.50;;;2.20;;
70228;SDS011;57617;51.988;5.854;2023-07-13T14:42:42;5.05;;;2.00;;
70228;SDS011;57617;51.988;5.854;2023-07-13T14:45:15;5.43;;;2.10;;
70228;SDS011;57617;51.988;5.854;2023-07-13T14:47:42;4.22;;;2.47;;
70228;SDS011;57617;51.988;5.854;2023-07-13T14:50:12;3.53;;;2.10;;
70228;SDS011;57617;51.988;5.854;2023-07-13T14:52:38;4.45;;;2.45;;
70228;SDS011;57617;51.988;5.854;2023-07-13T14:55:07;6.05;;;2.63;;
70228;SDS011;57617;51.988;5.854;2023-07-13T14:57:35;5.10;;;2.83;;
70228;SDS011;57617;51.988;5.854;2023-07-13T15:00:00;7.60;;;2.70;;
70228;SDS011;57617;51.988;5.854;2023-07-13T15:02:34;5.80;;;2.38;;
70228;SDS011;57617;51.988;5.854;2023-07-13T15:05:05;6.22;;;2.50;;
70228;SDS011;57617;51.988;5.854;2023-07-13T15:07:37;6.43;;;2.85;;
70228;SDS011;57617;51.988;5.854;2023-07-13T15:10:11;7.28;;;2.85;;